createdAt,value
2018-05-26T00:02:02.122Z,17.20
2018-05-26T00:04:28.192Z,17.20
2018-05-26T00:06:54.150Z,17.00
2018-05-26T00:09:20.150Z,17.20
2018-05-26T00:11:46.866Z,16.90
2018-05-26T00:14:12.927Z,16.90
2018-05-26T00:16:38.949Z,16.80
2018-05-26T00:19:05.695Z,16.60
2018-05-26T00:21:31.647Z,16.60
2018-05-26T00:23:57.629Z,16.50
2018-05-26T00:26:23.587Z,16.40
2018-05-26T00:28:49.572Z,16.60
2018-05-26T00:31:15.663Z,16.60
2018-05-26T00:33:41.627Z,16.50
2018-05-26T00:36:07.654Z,16.40
2018-05-26T00:38:33.606Z,16.30
2018-05-26T00:40:59.740Z,16.20
2018-05-26T00:43:25.699Z,16.20
2018-05-26T00:45:52.443Z,16.30
2018-05-26T00:48:19.134Z,16.30
2018-05-26T00:50:45.152Z,16.30
2018-05-26T00:53:11.934Z,16.10
2018-05-26T00:55:38.038Z,16.10
2018-05-26T00:58:04.734Z,16.00
2018-05-26T01:00:30.779Z,16.00
2018-05-26T01:02:56.759Z,16.10
2018-05-26T01:05:23.459Z,16.00
2018-05-26T01:07:49.451Z,15.90
2018-05-26T01:10:16.190Z,15.80
2018-05-26T01:12:42.213Z,15.80
2018-05-26T01:15:08.199Z,15.70
2018-05-26T01:17:34.186Z,15.50
2018-05-26T01:20:00.150Z,15.60
2018-05-26T01:22:26.862Z,15.60
2018-05-26T01:24:52.850Z,15.60
2018-05-26T01:27:18.811Z,15.40
2018-05-26T01:29:44.828Z,15.40
2018-05-26T01:32:10.885Z,15.40
2018-05-26T01:34:37.159Z,15.30
2018-05-26T01:37:03.111Z,15.20
2018-05-26T01:39:29.860Z,15.40
2018-05-26T01:41:55.842Z,15.40
2018-05-26T01:44:21.790Z,15.30
2018-05-26T01:46:47.781Z,15.30
2018-05-26T01:49:14.525Z,15.30
2018-05-26T01:51:40.557Z,15.30
2018-05-26T01:54:07.266Z,15.10
2018-05-26T01:56:33.248Z,15.10
2018-05-26T01:59:00.000Z,15.10
2018-05-26T02:01:25.976Z,15.10
2018-05-26T02:03:51.967Z,15.00
2018-05-26T02:06:17.927Z,15.00
2018-05-26T02:08:44.697Z,15.00
2018-05-26T02:11:10.723Z,15.00
2018-05-26T02:13:37.408Z,15.00
2018-05-26T02:16:03.408Z,15.00
2018-05-26T02:18:29.376Z,14.80
2018-05-26T02:20:55.408Z,14.80
2018-05-26T02:23:21.384Z,14.80
2018-05-26T02:25:47.367Z,14.70
2018-05-26T02:28:13.353Z,14.80
2018-05-26T02:30:39.400Z,14.80
2018-05-26T02:33:06.137Z,14.70
2018-05-26T02:35:32.087Z,14.70
2018-05-26T02:38:05.069Z,14.70
2018-05-26T02:40:31.070Z,14.70
2018-05-26T02:42:57.074Z,14.60
2018-05-26T02:45:23.035Z,14.60
2018-05-26T02:47:49.777Z,14.80
2018-05-26T02:50:16.479Z,14.80
2018-05-26T02:52:42.528Z,14.80
2018-05-26T02:55:08.543Z,14.70
2018-05-26T02:57:34.537Z,14.50
2018-05-26T03:00:01.246Z,14.50
2018-05-26T03:02:27.260Z,14.50
2018-05-26T03:04:59.430Z,14.40
2018-05-26T03:07:31.684Z,14.50
2018-05-26T03:10:03.813Z,14.50
2018-05-26T03:12:35.974Z,14.40
2018-05-26T03:15:01.929Z,14.30
2018-05-26T03:20:27.481Z,14.20
2018-05-26T03:22:53.461Z,14.20
2018-05-26T03:25:19.443Z,14.20
2018-05-26T03:27:45.424Z,14.10
2018-05-26T03:30:11.469Z,14.30
2018-05-26T03:32:37.423Z,14.30
2018-05-26T03:35:03.423Z,14.30
2018-05-26T03:37:29.399Z,14.40
2018-05-26T03:39:56.152Z,14.20
2018-05-26T03:42:22.140Z,14.20
2018-05-26T03:44:48.144Z,14.20
2018-05-26T03:47:14.895Z,14.00
2018-05-26T03:49:41.641Z,14.00
2018-05-26T03:52:07.646Z,14.00
2018-05-26T03:54:34.479Z,14.00
2018-05-26T04:00:09.867Z,14.40
2018-05-26T04:02:35.820Z,14.40
2018-05-26T04:05:01.786Z,14.40
2018-05-26T04:07:27.841Z,14.40
2018-05-26T04:09:53.839Z,14.40
2018-05-26T04:12:19.837Z,14.40
2018-05-26T04:14:46.608Z,14.40
2018-05-26T04:17:12.647Z,14.40
2018-05-26T04:19:38.951Z,14.50
2018-05-26T04:22:05.707Z,14.60
2018-05-26T04:24:31.666Z,14.60
2018-05-26T04:26:57.656Z,14.80
2018-05-26T04:29:24.411Z,15.10
2018-05-26T04:31:50.403Z,15.10
2018-05-26T04:34:16.392Z,15.10
2018-05-26T04:36:42.374Z,15.10
2018-05-26T04:39:08.397Z,15.20
2018-05-26T04:41:35.110Z,15.10
2018-05-26T04:44:01.104Z,15.10
2018-05-26T04:46:27.084Z,15.20
2018-05-26T04:48:53.086Z,15.00
2018-05-26T04:51:19.032Z,15.10
2018-05-26T04:53:45.038Z,15.20
2018-05-26T04:56:11.040Z,15.10
2018-05-26T04:58:37.024Z,15.10
2018-05-26T05:01:02.998Z,15.20
2018-05-26T05:03:28.961Z,15.20
2018-05-26T05:05:54.949Z,15.30
2018-05-26T05:08:21.379Z,15.40
2018-05-26T05:10:47.367Z,15.50
2018-05-26T05:13:13.411Z,15.70
2018-05-26T05:15:39.470Z,15.50
2018-05-26T05:18:05.443Z,15.60
2018-05-26T05:20:31.436Z,15.60
2018-05-26T05:22:58.220Z,16.00
2018-05-26T05:25:24.849Z,16.00
2018-05-26T05:27:50.812Z,16.00
2018-05-26T05:30:16.810Z,16.20
2018-05-26T05:32:43.572Z,16.10
2018-05-26T05:35:10.349Z,16.10
2018-05-26T05:37:36.346Z,16.00
2018-05-26T05:40:02.315Z,16.30
2018-05-26T05:42:28.305Z,16.40
2018-05-26T05:44:54.321Z,16.40
2018-05-26T05:47:20.304Z,16.40
2018-05-26T05:49:47.008Z,16.40
2018-05-26T05:52:13.008Z,16.40
2018-05-26T05:54:39.743Z,16.70
2018-05-26T05:57:06.484Z,16.80
2018-05-26T05:59:33.199Z,16.90
2018-05-26T06:01:59.191Z,17.00
2018-05-26T06:04:25.896Z,17.00
2018-05-26T06:06:51.895Z,17.00
2018-05-26T06:09:21.588Z,17.00
2018-05-26T06:11:47.588Z,17.00
2018-05-26T06:14:13.570Z,17.20
2018-05-26T06:16:39.629Z,17.30
2018-05-26T06:19:05.615Z,17.40
2018-05-26T06:21:31.571Z,17.50
2018-05-26T06:23:57.555Z,17.50
2018-05-26T06:26:23.560Z,17.60
2018-05-26T06:28:49.523Z,17.60
2018-05-26T06:31:15.507Z,17.70
2018-05-26T06:33:41.497Z,17.80
2018-05-26T06:36:07.477Z,17.90
2018-05-26T06:38:33.563Z,17.90
2018-05-26T06:40:59.528Z,18.00
2018-05-26T06:43:25.544Z,18.10
2018-05-26T06:45:51.490Z,18.20
2018-05-26T06:48:17.468Z,18.30
2018-05-26T06:50:43.465Z,18.30
2018-05-26T06:53:09.515Z,18.40
2018-05-26T06:55:35.499Z,18.50
2018-05-26T06:58:02.887Z,18.70
2018-05-26T07:00:28.871Z,18.70
2018-05-26T07:02:54.838Z,18.80
2018-05-26T07:05:21.539Z,19.00
2018-05-26T07:07:47.511Z,19.00
2018-05-26T07:10:13.451Z,19.00
2018-05-26T07:12:39.462Z,19.10
2018-05-26T07:15:05.418Z,19.20
2018-05-26T07:17:31.387Z,19.40
2018-05-26T07:19:57.336Z,19.50
2018-05-26T07:22:23.345Z,19.60
2018-05-26T07:24:50.045Z,19.70
2018-05-26T07:27:16.764Z,19.70
2018-05-26T07:29:43.268Z,19.60
2018-05-26T07:32:09.293Z,19.80
2018-05-26T07:34:35.305Z,19.80
2018-05-26T07:37:01.250Z,20.00
2018-05-26T07:39:27.203Z,20.00
2018-05-26T07:41:53.815Z,20.20
2018-05-26T07:44:19.759Z,20.30
2018-05-26T07:46:45.739Z,20.30
2018-05-26T07:49:12.448Z,20.40
2018-05-26T07:51:39.207Z,20.70
2018-05-26T07:54:05.184Z,20.70
2018-05-26T07:56:31.175Z,20.80
2018-05-26T07:58:57.161Z,21.00
2018-05-26T08:01:23.135Z,21.00
2018-05-26T08:03:49.833Z,21.20
2018-05-26T08:06:15.780Z,21.20
2018-05-26T08:08:41.886Z,21.20
2018-05-26T08:11:08.414Z,21.40
2018-05-26T08:13:35.169Z,21.60
2018-05-26T08:16:01.915Z,21.70
2018-05-26T08:18:28.647Z,21.80
2018-05-26T08:20:55.376Z,22.10
2018-05-26T08:23:21.358Z,22.10
2018-05-26T08:25:48.096Z,22.20
2018-05-26T08:28:14.045Z,22.10
2018-05-26T08:30:40.041Z,22.30
2018-05-26T08:33:05.998Z,22.30
2018-05-26T08:35:31.969Z,22.50
2018-05-26T08:37:58.667Z,22.80
2018-05-26T08:40:24.685Z,22.70
2018-05-26T08:42:50.651Z,22.70
2018-05-26T08:45:16.623Z,22.80
2018-05-26T08:47:43.312Z,23.30
2018-05-26T08:50:09.312Z,23.30
2018-05-26T08:52:36.000Z,23.50
2018-05-26T08:55:01.969Z,23.40
2018-05-26T08:57:28.697Z,23.60
2018-05-26T08:59:54.697Z,23.60
2018-05-26T09:02:21.478Z,23.70
2018-05-26T09:04:48.149Z,23.90
2018-05-26T09:07:14.100Z,23.90
2018-05-26T09:09:40.117Z,24.10
2018-05-26T09:12:06.102Z,24.40
2018-05-26T09:14:32.842Z,24.30
2018-05-26T09:16:58.789Z,24.30
2018-05-26T09:19:25.524Z,24.50
2018-05-26T09:21:51.504Z,24.50
2018-05-26T09:24:18.210Z,24.40
2018-05-26T09:26:44.157Z,24.40
2018-05-26T09:29:10.144Z,24.40
2018-05-26T09:31:36.096Z,24.50
2018-05-26T09:34:02.083Z,24.70
2018-05-26T09:36:28.764Z,24.90
2018-05-26T09:38:54.753Z,24.90
2018-05-26T09:41:20.724Z,24.90
2018-05-26T09:43:46.786Z,24.60
2018-05-26T09:46:14.416Z,24.60
2018-05-26T09:48:41.125Z,24.70
2018-05-26T09:51:07.121Z,24.70
2018-05-26T09:53:34.115Z,24.50
2018-05-26T09:56:00.122Z,24.40
2018-05-26T09:58:26.831Z,24.90
2018-05-26T10:00:52.775Z,24.80
2018-05-26T10:03:18.761Z,25.20
2018-05-26T10:05:44.711Z,25.40
2018-05-26T10:08:10.686Z,25.50
2018-05-26T10:10:36.677Z,25.70
2018-05-26T10:13:02.660Z,25.80
2018-05-26T10:15:28.627Z,26.10
2018-05-26T10:17:54.584Z,26.40
2018-05-26T10:20:20.527Z,26.30
2018-05-26T10:22:46.525Z,26.20
2018-05-26T10:25:13.232Z,25.90
2018-05-26T10:27:39.255Z,25.80
2018-05-26T10:30:05.333Z,25.60
2018-05-26T10:32:31.227Z,26.00
2018-05-26T10:34:57.167Z,26.20
2018-05-26T10:37:23.143Z,26.20
2018-05-26T10:39:49.092Z,26.10
2018-05-26T10:42:15.808Z,26.40
2018-05-26T10:44:41.777Z,26.40
2018-05-26T10:47:08.538Z,26.70
2018-05-26T10:49:42.259Z,27.00
2018-05-26T10:52:08.989Z,27.20
2018-05-26T10:54:34.963Z,27.20
2018-05-26T10:57:00.907Z,27.40
2018-05-26T10:59:26.883Z,27.60
2018-05-26T11:01:52.851Z,27.80
2018-05-26T11:04:19.612Z,27.90
2018-05-26T11:06:46.323Z,28.00
2018-05-26T11:09:12.284Z,27.90
2018-05-26T11:11:39.060Z,26.90
2018-05-26T11:14:05.013Z,26.90
2018-05-26T11:16:31.013Z,26.90
2018-05-26T11:18:57.039Z,26.70
2018-05-26T11:21:22.959Z,27.30
2018-05-26T11:23:48.915Z,27.70
2018-05-26T11:26:14.923Z,27.50
2018-05-26T11:28:40.867Z,26.80
2018-05-26T11:31:06.849Z,26.80
2018-05-26T11:33:32.836Z,27.20
2018-05-26T11:35:58.793Z,27.60
2018-05-26T11:38:24.784Z,27.90
2018-05-26T11:40:50.771Z,28.30
2018-05-26T11:43:16.747Z,28.30
2018-05-26T11:45:42.727Z,28.30
2018-05-26T11:48:08.692Z,28.40
2018-05-26T11:50:34.697Z,28.50
2018-05-26T11:53:00.676Z,28.60
2018-05-26T11:55:26.669Z,28.40
2018-05-26T11:57:52.623Z,28.70
2018-05-26T12:00:18.611Z,29.00
2018-05-26T12:02:44.559Z,29.40
2018-05-26T12:05:10.568Z,29.50
2018-05-26T12:07:36.560Z,29.60
2018-05-26T12:10:02.516Z,30.10
2018-05-26T12:12:29.236Z,31.30
2018-05-26T12:14:55.204Z,31.20
2018-05-26T12:17:21.936Z,32.00
2018-05-26T12:19:47.910Z,31.90
2018-05-26T12:22:13.894Z,32.50
2018-05-26T12:24:40.633Z,34.90
2018-05-26T12:27:06.614Z,34.80
2018-05-26T12:29:33.292Z,34.20
2018-05-26T12:31:59.975Z,33.90
2018-05-26T12:34:25.971Z,33.90
2018-05-26T12:36:52.691Z,35.80
2018-05-26T12:39:18.653Z,35.70
2018-05-26T12:41:45.389Z,36.50
2018-05-26T12:44:11.417Z,36.40
2018-05-26T12:46:37.406Z,36.90
2018-05-26T12:49:03.392Z,37.60
2018-05-26T12:51:29.337Z,37.20
2018-05-26T12:53:55.327Z,37.90
2018-05-26T12:56:21.305Z,38.70
2018-05-26T12:58:47.284Z,39.00
2018-05-26T13:01:13.299Z,37.70
2018-05-26T13:03:40.031Z,36.80
2018-05-26T13:06:06.016Z,36.80
2018-05-26T13:08:32.679Z,38.60
2018-05-26T13:10:58.655Z,38.60
2018-05-26T13:13:24.650Z,38.20
2018-05-26T13:15:50.633Z,40.60
2018-05-26T13:18:16.574Z,42.50
2018-05-26T13:20:43.291Z,43.20
2018-05-26T13:23:09.426Z,43.20
2018-05-26T13:25:35.441Z,42.10
2018-05-26T13:28:01.404Z,42.10
2018-05-26T13:30:27.407Z,42.30
2018-05-26T13:32:53.355Z,42.10
2018-05-26T13:35:19.351Z,42.40
2018-05-26T13:37:45.320Z,43.00
2018-05-26T13:40:11.297Z,43.20
2018-05-26T13:42:37.311Z,43.70
2018-05-26T13:45:03.313Z,42.10
2018-05-26T13:47:29.295Z,41.50
2018-05-26T13:49:55.348Z,41.20
2018-05-26T13:52:21.379Z,41.00
2018-05-26T13:54:47.299Z,40.60
2018-05-26T13:57:13.274Z,38.80
2018-05-26T13:59:40.060Z,39.10
2018-05-26T14:02:06.008Z,39.10
2018-05-26T14:04:32.008Z,40.00
2018-05-26T14:06:59.518Z,42.00
2018-05-26T14:09:25.513Z,42.00
2018-05-26T14:11:51.476Z,41.40
2018-05-26T14:14:17.436Z,40.90
2018-05-26T14:16:43.383Z,40.90
2018-05-26T14:19:09.393Z,40.80
2018-05-26T14:21:35.371Z,40.50
2018-05-26T14:24:01.323Z,40.80
2018-05-26T14:26:28.054Z,42.00
2018-05-26T14:28:54.011Z,42.00
2018-05-26T14:31:19.982Z,41.70
2018-05-26T14:33:45.931Z,40.90
2018-05-26T14:36:11.947Z,40.50
2018-05-26T14:38:37.904Z,40.60
2018-05-26T14:41:03.850Z,40.00
2018-05-26T14:43:29.835Z,40.20
2018-05-26T14:45:56.525Z,41.90
2018-05-26T14:48:22.506Z,41.80
2018-05-26T14:50:48.561Z,41.20
2018-05-26T14:53:15.299Z,40.80
2018-05-26T14:55:41.295Z,40.80
2018-05-26T14:58:07.251Z,39.80
2018-05-26T15:00:33.247Z,40.20
2018-05-26T15:02:59.859Z,40.20
2018-05-26T15:05:25.859Z,39.50
2018-05-26T15:07:51.805Z,39.20
2018-05-26T15:10:18.779Z,39.40
2018-05-26T15:12:44.818Z,39.00
2018-05-26T15:15:10.723Z,38.20
2018-05-26T15:17:36.700Z,37.40
2018-05-26T15:20:02.674Z,36.80
2018-05-26T15:22:28.780Z,35.90
2018-05-26T15:24:55.495Z,35.30
2018-05-26T15:27:21.458Z,35.20
2018-05-26T15:29:47.435Z,34.60
2018-05-26T15:32:13.423Z,34.40
2018-05-26T15:34:39.399Z,34.10
2018-05-26T15:37:05.343Z,33.90
2018-05-26T15:39:31.335Z,33.90
2018-05-26T15:41:57.279Z,33.80
2018-05-26T15:44:23.220Z,33.80
2018-05-26T15:46:49.191Z,33.80
2018-05-26T15:49:15.139Z,33.60
2018-05-26T15:51:41.159Z,33.40
2018-05-26T15:54:07.151Z,32.90
2018-05-26T15:56:33.130Z,32.10
2018-05-26T15:58:59.080Z,31.80
2018-05-26T16:01:25.043Z,32.40
2018-05-26T16:03:51.024Z,32.20
2018-05-26T16:06:17.720Z,31.20
2018-05-26T16:08:43.679Z,31.10
2018-05-26T16:11:09.653Z,30.90
2018-05-26T16:13:35.639Z,31.80
2018-05-26T16:16:02.520Z,32.10
2018-05-26T16:18:28.496Z,31.30
2018-05-26T16:20:54.488Z,31.10
2018-05-26T16:23:20.465Z,31.20
2018-05-26T16:25:46.449Z,30.90
2018-05-26T16:28:12.423Z,29.70
2018-05-26T16:30:38.414Z,29.50
2018-05-26T16:33:04.408Z,29.20
2018-05-26T16:35:30.358Z,29.30
2018-05-26T16:37:56.379Z,30.00
2018-05-26T16:40:22.367Z,30.70
2018-05-26T16:42:48.311Z,31.10
2018-05-26T16:45:14.321Z,30.50
2018-05-26T16:47:42.495Z,30.10
2018-05-26T16:50:08.499Z,30.40
2018-05-26T16:52:35.187Z,31.10
2018-05-26T16:55:01.173Z,31.00
2018-05-26T16:57:27.195Z,30.90
2018-05-26T16:59:53.157Z,30.70
2018-05-26T17:02:19.852Z,30.50
2018-05-26T17:04:45.883Z,30.50
2018-05-26T17:07:11.866Z,29.50
2018-05-26T17:09:38.615Z,30.20
2018-05-26T17:12:05.320Z,30.30
2018-05-26T17:14:31.305Z,30.30
2018-05-26T17:16:57.269Z,29.80
2018-05-26T17:19:24.035Z,28.70
2018-05-26T17:21:50.047Z,28.60
2018-05-26T17:24:16.747Z,29.00
2018-05-26T17:26:42.705Z,29.00
2018-05-26T17:29:08.718Z,29.40
2018-05-26T17:31:34.704Z,28.90
2018-05-26T17:34:00.688Z,29.20
2018-05-26T17:36:26.631Z,29.20
2018-05-26T17:38:52.608Z,29.10
2018-05-26T17:41:19.316Z,28.80
2018-05-26T17:43:45.280Z,28.70
2018-05-26T17:46:11.279Z,28.80
2018-05-26T17:48:37.313Z,28.50
2018-05-26T17:51:03.307Z,28.40
2018-05-26T17:53:29.248Z,28.20
2018-05-26T17:55:55.969Z,27.70
2018-05-26T17:58:21.944Z,27.70
2018-05-26T18:00:48.663Z,27.60
2018-05-26T18:03:14.670Z,27.60
2018-05-26T18:05:40.653Z,27.60
2018-05-26T18:08:06.635Z,27.70
2018-05-26T18:10:32.748Z,27.80
2018-05-26T18:12:59.987Z,27.80
2018-05-26T18:15:25.981Z,27.80
2018-05-26T18:17:51.966Z,27.90
2018-05-26T18:20:17.913Z,28.00
2018-05-26T18:22:44.654Z,28.00
2018-05-26T18:25:10.648Z,28.00
2018-05-26T18:27:36.613Z,28.00
2018-05-26T18:30:02.592Z,27.50
2018-05-26T18:32:28.545Z,27.50
2018-05-26T18:34:54.501Z,27.30
2018-05-26T18:37:21.054Z,27.00
2018-05-26T18:39:47.028Z,26.90
2018-05-26T18:42:13.000Z,26.80
2018-05-26T18:44:39.879Z,26.70
2018-05-26T18:47:05.871Z,26.70
2018-05-26T18:49:32.599Z,26.40
2018-05-26T18:51:58.555Z,26.40
2018-05-26T18:54:25.321Z,26.10
2018-05-26T18:56:52.013Z,26.00
2018-05-26T18:59:18.001Z,26.00
2018-05-26T19:01:46.414Z,25.60
2018-05-26T19:04:12.403Z,25.60
2018-05-26T19:06:38.452Z,25.50
2018-05-26T19:09:04.372Z,25.30
2018-05-26T19:11:30.323Z,25.10
2018-05-26T19:13:56.304Z,25.00
2018-05-26T19:16:22.249Z,24.80
2018-05-26T19:18:49.246Z,24.60
2018-05-26T19:21:15.207Z,24.50
2018-05-26T19:23:41.969Z,24.20
2018-05-26T19:26:07.951Z,24.20
2018-05-26T19:28:33.900Z,24.20
2018-05-26T19:30:59.884Z,24.00
2018-05-26T19:33:25.849Z,24.00
2018-05-26T19:35:51.835Z,23.80
2018-05-26T19:38:17.832Z,23.70
2018-05-26T19:40:43.779Z,23.60
2018-05-26T19:43:10.771Z,23.80
2018-05-26T19:45:39.612Z,23.50
2018-05-26T19:48:05.592Z,23.50
2018-05-26T19:50:31.590Z,23.50
2018-05-26T19:52:57.535Z,23.40
2018-05-26T19:55:23.515Z,23.30
2018-05-26T19:57:50.243Z,23.60
2018-05-26T20:00:16.200Z,23.60
2018-05-26T20:02:42.939Z,23.30
2018-05-26T20:05:08.920Z,23.30
2018-05-26T20:07:34.907Z,23.50
2018-05-26T20:10:00.880Z,23.20
2018-05-26T20:12:26.858Z,22.70
2018-05-26T20:14:52.808Z,22.30
2018-05-26T20:17:18.792Z,22.20
2018-05-26T20:19:44.735Z,22.50
2018-05-26T20:22:10.741Z,22.40
2018-05-26T20:24:37.473Z,22.30
2018-05-26T20:27:03.468Z,22.30
2018-05-26T20:29:29.420Z,21.90
2018-05-26T20:31:55.367Z,21.70
2018-05-26T20:34:21.936Z,21.70
2018-05-26T20:36:47.900Z,21.40
2018-05-26T20:39:15.139Z,21.50
2018-05-26T20:41:41.163Z,21.50
2018-05-26T20:44:07.148Z,21.60
2018-05-26T20:46:33.121Z,22.00
2018-05-26T20:48:59.088Z,22.00
2018-05-26T20:51:25.036Z,21.80
2018-05-26T20:53:51.760Z,21.90
2018-05-26T20:56:20.599Z,21.80
2018-05-26T20:58:47.284Z,21.30
2018-05-26T21:01:13.304Z,21.30
2018-05-26T21:03:39.271Z,21.10
2018-05-26T21:06:05.232Z,21.00
2018-05-26T21:08:31.207Z,20.90
2018-05-26T21:10:57.172Z,20.60
2018-05-26T21:13:23.127Z,20.50
2018-05-26T21:15:49.120Z,20.30
2018-05-26T21:18:15.155Z,20.40
2018-05-26T21:20:41.296Z,20.50
2018-05-26T21:23:07.289Z,20.40
2018-05-26T21:25:34.745Z,20.80
2018-05-26T21:28:00.728Z,20.80
2018-05-26T21:30:27.469Z,21.10
2018-05-26T21:32:54.171Z,20.90
2018-05-26T21:35:20.204Z,20.90
2018-05-26T21:37:46.187Z,20.60
2018-05-26T21:40:12.150Z,20.60
2018-05-26T21:42:38.096Z,20.30
2018-05-26T21:45:04.071Z,20.20
2018-05-26T21:47:30.062Z,20.30
2018-05-26T21:49:56.011Z,20.30
2018-05-26T21:52:22.887Z,20.60
2018-05-26T21:54:48.868Z,20.60
2018-05-26T21:57:15.568Z,20.70
2018-05-26T21:59:41.652Z,20.60
2018-05-26T22:02:08.391Z,20.40
2018-05-26T22:04:34.335Z,20.30
2018-05-26T22:07:00.321Z,20.30
2018-05-26T22:09:26.307Z,20.60
2018-05-26T22:11:53.999Z,20.60
2018-05-26T22:14:20.776Z,20.40
2018-05-26T22:16:47.314Z,20.40
2018-05-26T22:19:13.395Z,20.10
2018-05-26T22:21:39.379Z,20.30
2018-05-26T22:24:06.067Z,20.20
2018-05-26T22:26:32.042Z,20.20
2018-05-26T22:28:57.997Z,20.30
2018-05-26T22:31:24.732Z,19.80
2018-05-26T22:33:50.692Z,19.70
2018-05-26T22:36:17.419Z,19.80
2018-05-26T22:38:43.419Z,19.80
2018-05-26T22:41:09.397Z,19.60
2018-05-26T22:43:35.376Z,19.50
2018-05-26T22:46:01.367Z,19.50
2018-05-26T22:48:27.320Z,19.40
2018-05-26T22:50:54.003Z,19.40
2018-05-26T22:53:19.995Z,19.40
2018-05-26T22:55:45.935Z,19.30
2018-05-26T22:58:11.947Z,19.30
2018-05-26T23:00:37.900Z,19.40
2018-05-26T23:03:03.884Z,19.30
2018-05-26T23:05:29.854Z,19.20
2018-05-26T23:07:55.803Z,19.20
2018-05-26T23:10:21.828Z,19.20
2018-05-26T23:12:47.771Z,19.10
2018-05-26T23:15:13.771Z,18.90
2018-05-26T23:17:39.826Z,18.80
2018-05-26T23:20:05.768Z,18.90
2018-05-26T23:22:31.743Z,18.70
2018-05-26T23:24:58.467Z,18.60
2018-05-26T23:27:24.423Z,18.60
2018-05-26T23:29:51.141Z,18.50
2018-05-26T23:32:17.115Z,18.50
2018-05-26T23:34:43.820Z,18.30
2018-05-26T23:37:09.829Z,18.30
2018-05-26T23:39:35.776Z,18.20
2018-05-26T23:42:01.769Z,18.20
2018-05-26T23:44:28.483Z,18.20
2018-05-26T23:46:54.467Z,18.10
2018-05-26T23:49:21.204Z,17.90
2018-05-26T23:51:47.191Z,17.90
2018-05-26T23:54:13.188Z,17.90
2018-05-26T23:56:39.904Z,18.00
2018-05-26T23:59:05.885Z,18.00
